createdAt,value
2019-06-10T00:01:08.640Z,16.63
2019-06-10T00:03:38.571Z,16.66
2019-06-10T00:06:11.605Z,16.66
2019-06-10T00:08:41.366Z,16.58
2019-06-10T00:11:11.837Z,16.56
2019-06-10T00:13:41.613Z,16.53
2019-06-10T00:16:11.831Z,16.53
2019-06-10T00:18:42.934Z,16.55
2019-06-10T00:21:12.971Z,16.47
2019-06-10T00:23:42.613Z,16.45
2019-06-10T00:26:12.763Z,16.34
2019-06-10T00:28:42.499Z,16.17
2019-06-10T00:31:12.070Z,16.17
2019-06-10T00:33:41.660Z,16.10
2019-06-10T00:36:13.655Z,16.15
2019-06-10T00:38:43.265Z,16.12
2019-06-10T00:41:14.146Z,16.02
2019-06-10T00:43:43.931Z,15.93
2019-06-10T00:46:13.665Z,15.97
2019-06-10T00:48:43.306Z,16.05
2019-06-10T00:51:13.307Z,15.98
2019-06-10T00:53:42.996Z,15.89
2019-06-10T00:56:14.340Z,16.07
2019-06-10T00:58:44.179Z,16.14
2019-06-10T01:01:14.659Z,16.10
2019-06-10T01:03:44.403Z,16.06
2019-06-10T01:06:15.074Z,16.01
2019-06-10T01:08:44.866Z,16.05
2019-06-10T01:11:21.556Z,16.01
2019-06-10T01:13:45.757Z,16.04
2019-06-10T01:16:15.629Z,16.09
2019-06-10T01:18:45.279Z,16.04
2019-06-10T01:21:15.508Z,15.98
2019-06-10T01:23:45.200Z,16.00
2019-06-10T01:26:16.391Z,15.99
2019-06-10T01:28:46.233Z,16.00
2019-06-10T01:31:20.694Z,16.05
2019-06-10T01:33:47.159Z,15.98
2019-06-10T01:36:18.097Z,16.03
2019-06-10T01:38:50.937Z,16.07
2019-06-10T01:41:21.449Z,16.13
2019-06-10T01:43:51.516Z,16.19
2019-06-10T01:46:21.408Z,16.14
2019-06-10T01:48:52.112Z,16.17
2019-06-10T01:51:21.892Z,16.24
2019-06-10T01:53:51.720Z,16.20
2019-06-10T01:56:21.764Z,16.24
2019-06-10T01:58:51.588Z,16.09
2019-06-10T02:01:23.590Z,16.12
2019-06-10T02:03:53.464Z,16.11
2019-06-10T02:06:25.790Z,16.04
2019-06-10T02:08:56.197Z,16.01
2019-06-10T02:11:25.764Z,16.00
2019-06-10T02:13:55.359Z,15.89
2019-06-10T02:16:25.012Z,15.92
2019-06-10T02:19:00.546Z,15.75
2019-06-10T02:21:25.858Z,15.77
2019-06-10T02:23:55.522Z,15.80
2019-06-10T02:26:25.086Z,15.86
2019-06-10T02:28:54.841Z,15.81
2019-06-10T02:31:30.531Z,15.80
2019-06-10T02:33:55.688Z,15.80
2019-06-10T02:36:31.299Z,15.68
2019-06-10T02:38:56.548Z,15.66
2019-06-10T02:41:31.881Z,15.72
2019-06-10T02:43:57.421Z,15.72
2019-06-10T02:46:31.083Z,15.70
2019-06-10T02:49:17.589Z,15.75
2019-06-10T02:51:31.439Z,15.69
2019-06-10T02:54:04.772Z,15.72
2019-06-10T02:56:36.356Z,15.75
2019-06-10T02:59:04.226Z,15.76
2019-06-10T03:01:37.902Z,15.68
2019-06-10T03:04:05.219Z,15.72
2019-06-10T03:06:39.821Z,15.74
2019-06-10T03:09:07.075Z,15.75
2019-06-10T03:11:37.567Z,15.81
2019-06-10T03:14:07.350Z,15.86
2019-06-10T03:16:44.446Z,15.75
2019-06-10T03:19:14.027Z,15.76
2019-06-10T03:21:43.926Z,15.89
2019-06-10T03:24:13.514Z,15.88
2019-06-10T03:26:43.140Z,15.76
2019-06-10T03:29:13.065Z,15.76
2019-06-10T03:31:47.736Z,15.75
2019-06-10T03:34:14.827Z,15.63
2019-06-10T03:36:45.205Z,15.64
2019-06-10T03:39:16.160Z,15.72
2019-06-10T03:41:45.726Z,15.83
2019-06-10T03:44:15.320Z,15.75
2019-06-10T03:46:44.882Z,15.67
2019-06-10T03:49:14.832Z,15.66
2019-06-10T03:51:44.426Z,15.66
2019-06-10T03:54:14.002Z,15.68
2019-06-10T03:56:43.563Z,15.80
2019-06-10T03:59:13.208Z,15.77
2019-06-10T04:01:42.883Z,15.71
2019-06-10T04:04:13.050Z,15.65
2019-06-10T04:06:44.285Z,15.61
2019-06-10T04:09:14.132Z,15.70
2019-06-10T04:11:43.694Z,15.71
2019-06-10T04:14:13.278Z,15.72
2019-06-10T04:16:43.467Z,15.72
2019-06-10T04:19:13.390Z,15.81
2019-06-10T04:21:43.462Z,15.86
2019-06-10T04:24:13.082Z,15.97
2019-06-10T04:26:43.573Z,15.88
2019-06-10T04:29:13.227Z,15.80
2019-06-10T04:31:42.781Z,15.72
2019-06-10T04:34:12.625Z,15.75
2019-06-10T04:36:42.556Z,15.66
2019-06-10T04:39:12.690Z,15.61
2019-06-10T04:41:42.782Z,15.52
2019-06-10T04:44:13.169Z,15.56
2019-06-10T04:46:43.039Z,15.54
2019-06-10T04:49:13.242Z,15.54
2019-06-10T04:51:43.416Z,15.57
2019-06-10T04:54:13.579Z,15.61
2019-06-10T04:56:43.223Z,15.74
2019-06-10T04:59:12.801Z,15.86
2019-06-10T05:01:42.832Z,16.06
2019-06-10T05:04:12.745Z,15.94
2019-06-10T05:06:42.494Z,15.97
2019-06-10T05:09:12.532Z,15.90
2019-06-10T05:11:43.174Z,15.89
2019-06-10T05:14:13.410Z,15.84
2019-06-10T05:16:44.026Z,15.88
2019-06-10T05:19:13.612Z,15.79
2019-06-10T05:21:43.201Z,15.95
2019-06-10T05:24:12.786Z,15.94
2019-06-10T05:26:42.779Z,15.87
2019-06-10T05:29:12.379Z,15.91
2019-06-10T05:31:43.581Z,16.01
2019-06-10T05:34:13.368Z,16.02
2019-06-10T05:36:43.750Z,16.04
2019-06-10T05:39:13.463Z,16.11
2019-06-10T05:41:43.379Z,16.16
2019-06-10T05:44:13.620Z,16.25
2019-06-10T05:46:43.746Z,16.30
2019-06-10T05:49:13.322Z,16.47
2019-06-10T05:51:42.995Z,16.41
2019-06-10T05:54:13.015Z,16.56
2019-06-10T05:56:43.318Z,16.61
2019-06-10T05:59:15.702Z,16.50
2019-06-10T06:01:45.287Z,16.50
2019-06-10T06:04:14.855Z,16.50
2019-06-10T06:06:45.190Z,16.59
2019-06-10T06:09:14.873Z,16.53
2019-06-10T06:11:44.431Z,16.63
2019-06-10T06:14:14.007Z,16.73
2019-06-10T06:16:43.682Z,16.87
2019-06-10T06:19:13.251Z,16.87
2019-06-10T06:21:47.614Z,17.00
2019-06-10T06:24:14.201Z,17.17
2019-06-10T06:26:43.814Z,17.29
2019-06-10T06:29:13.391Z,17.30
2019-06-10T06:31:43.227Z,17.50
2019-06-10T06:34:13.751Z,17.83
2019-06-10T06:36:43.687Z,18.13
2019-06-10T06:39:13.321Z,18.32
2019-06-10T06:41:43.142Z,18.08
2019-06-10T06:44:13.147Z,18.33
2019-06-10T06:46:43.235Z,18.27
2019-06-10T06:49:13.095Z,18.32
2019-06-10T06:51:54.592Z,18.44
2019-06-10T06:54:13.875Z,18.58
2019-06-10T06:56:43.947Z,18.47
2019-06-10T06:59:13.599Z,18.34
2019-06-10T07:01:44.533Z,18.25
2019-06-10T07:04:14.627Z,18.10
2019-06-10T07:06:44.980Z,18.05
2019-06-10T07:09:16.280Z,17.98
2019-06-10T07:11:47.698Z,18.20
2019-06-10T07:14:19.287Z,18.34
2019-06-10T07:16:48.874Z,18.55
2019-06-10T07:19:18.704Z,18.68
2019-06-10T07:22:07.599Z,18.73
2019-06-10T07:24:19.622Z,18.81
2019-06-10T07:26:52.123Z,18.87
2019-06-10T07:29:22.579Z,18.81
2019-06-10T07:31:53.602Z,18.88
2019-06-10T07:34:26.693Z,18.66
2019-06-10T07:36:56.730Z,18.62
2019-06-10T07:39:26.305Z,18.71
2019-06-10T07:41:55.968Z,18.78
2019-06-10T07:44:25.555Z,18.93
2019-06-10T07:46:55.128Z,18.96
2019-06-10T07:49:24.766Z,19.01
2019-06-10T07:51:54.349Z,19.00
2019-06-10T07:54:23.916Z,19.07
2019-06-10T07:56:53.859Z,19.02
2019-06-10T07:59:23.493Z,19.09
2019-06-10T08:01:55.125Z,19.14
2019-06-10T08:04:24.460Z,19.36
2019-06-10T08:06:54.106Z,19.32
2019-06-10T08:09:23.681Z,19.45
2019-06-10T08:11:53.448Z,19.70
2019-06-10T08:14:22.999Z,19.83
2019-06-10T08:16:53.283Z,19.94
2019-06-10T08:19:34.434Z,19.93
2019-06-10T08:21:54.737Z,19.86
2019-06-10T08:24:24.725Z,19.67
2019-06-10T08:26:54.437Z,19.64
2019-06-10T08:29:24.000Z,19.87
2019-06-10T08:31:53.807Z,20.01
2019-06-10T08:34:23.491Z,20.14
2019-06-10T08:36:54.355Z,20.25
2019-06-10T08:39:24.107Z,20.41
2019-06-10T08:41:53.770Z,20.36
2019-06-10T08:44:23.341Z,20.30
2019-06-10T08:46:53.008Z,20.26
2019-06-10T08:49:23.872Z,20.19
2019-06-10T08:51:54.275Z,20.48
2019-06-10T08:54:23.827Z,20.68
2019-06-10T08:56:54.239Z,20.79
2019-06-10T08:59:23.884Z,20.62
2019-06-10T09:01:56.847Z,20.59
2019-06-10T09:04:24.886Z,20.67
2019-06-10T09:06:54.475Z,21.00
2019-06-10T09:09:26.978Z,21.00
2019-06-10T09:11:56.573Z,21.04
2019-06-10T09:14:26.946Z,20.99
2019-06-10T09:16:56.669Z,20.97
2019-06-10T09:19:26.252Z,21.22
2019-06-10T09:21:56.592Z,21.32
2019-06-10T09:24:26.389Z,21.20
2019-06-10T09:26:55.971Z,21.32
2019-06-10T09:29:25.641Z,21.43
2019-06-10T09:31:55.794Z,21.55
2019-06-10T09:34:25.710Z,21.55
2019-06-10T09:36:56.928Z,21.65
2019-06-10T09:39:26.699Z,22.00
2019-06-10T09:42:02.171Z,22.00
2019-06-10T09:44:27.658Z,21.96
2019-06-10T09:47:00.350Z,22.03
2019-06-10T09:49:33.067Z,22.07
2019-06-10T09:52:03.302Z,22.27
2019-06-10T09:54:33.793Z,22.36
2019-06-10T09:57:03.488Z,22.29
2019-06-10T09:59:33.218Z,22.31
2019-06-10T10:02:06.311Z,22.60
2019-06-10T10:04:37.381Z,22.73
2019-06-10T10:07:05.481Z,23.00
2019-06-10T10:09:37.071Z,23.01
2019-06-10T10:12:06.473Z,22.92
2019-06-10T10:14:36.075Z,23.07
2019-06-10T10:17:05.845Z,23.18
2019-06-10T10:19:35.531Z,23.08
2019-06-10T10:22:05.314Z,23.17
2019-06-10T10:24:34.885Z,23.27
2019-06-10T10:27:08.392Z,23.30
2019-06-10T10:29:35.811Z,23.31
2019-06-10T10:32:05.461Z,23.54
2019-06-10T10:34:35.121Z,23.58
2019-06-10T10:37:04.701Z,23.59
2019-06-10T10:39:34.260Z,23.80
2019-06-10T10:42:04.044Z,23.97
2019-06-10T10:44:33.669Z,23.98
2019-06-10T10:47:03.814Z,24.11
2019-06-10T10:49:33.587Z,24.06
2019-06-10T10:52:04.120Z,24.07
2019-06-10T10:54:36.659Z,24.33
2019-06-10T10:57:05.054Z,24.37
2019-06-10T10:59:34.783Z,24.48
2019-06-10T11:02:04.548Z,24.25
2019-06-10T11:04:35.197Z,24.23
2019-06-10T11:07:04.769Z,24.09
2019-06-10T11:09:34.371Z,24.02
2019-06-10T11:12:04.608Z,23.69
2019-06-10T11:14:34.509Z,23.71
2019-06-10T11:17:04.246Z,23.86
2019-06-10T11:19:34.066Z,23.89
2019-06-10T11:22:03.691Z,23.65
2019-06-10T11:24:40.636Z,23.92
2019-06-10T11:27:04.608Z,23.93
2019-06-10T11:29:34.274Z,23.81
2019-06-10T11:32:04.279Z,23.86
2019-06-10T11:34:33.955Z,23.95
2019-06-10T11:37:03.585Z,23.93
2019-06-10T11:39:36.614Z,24.07
2019-06-10T11:42:04.774Z,24.31
2019-06-10T11:44:34.356Z,24.70
2019-06-10T11:47:04.571Z,24.64
2019-06-10T11:49:34.231Z,24.64
2019-06-10T11:52:03.814Z,24.53
2019-06-10T11:54:47.825Z,24.24
2019-06-10T11:57:04.732Z,24.24
2019-06-10T11:59:34.319Z,24.21
2019-06-10T12:02:05.955Z,24.06
2019-06-10T12:04:35.397Z,24.23
2019-06-10T12:07:05.031Z,24.46
2019-06-10T12:09:34.625Z,24.83
2019-06-10T12:12:04.262Z,24.99
2019-06-10T12:14:34.248Z,25.24
2019-06-10T12:17:39.964Z,25.27
2019-06-10T12:19:35.580Z,25.37
2019-06-10T12:22:07.518Z,25.29
2019-06-10T12:24:36.679Z,25.04
2019-06-10T12:27:06.252Z,24.86
2019-06-10T12:29:35.857Z,25.05
2019-06-10T12:32:07.305Z,25.20
2019-06-10T12:34:37.338Z,25.17
2019-06-10T12:37:11.304Z,25.19
2019-06-10T12:39:38.385Z,25.33
2019-06-10T12:42:11.097Z,25.41
2019-06-10T12:44:39.516Z,25.45
2019-06-10T12:47:09.165Z,25.51
2019-06-10T12:49:38.940Z,25.31
2019-06-10T12:52:08.503Z,25.05
2019-06-10T12:54:38.087Z,25.04
2019-06-10T12:57:07.746Z,24.76
2019-06-10T12:59:37.335Z,24.89
2019-06-10T13:02:19.059Z,25.16
2019-06-10T13:04:39.706Z,25.37
2019-06-10T13:07:12.575Z,25.59
2019-06-10T13:09:43.966Z,25.49
2019-06-10T13:12:13.652Z,25.17
2019-06-10T13:14:43.710Z,25.22
2019-06-10T13:17:13.395Z,24.67
2019-06-10T13:19:43.365Z,24.81
2019-06-10T13:22:13.016Z,24.96
2019-06-10T13:24:42.679Z,24.75
2019-06-10T13:27:12.721Z,24.67
2019-06-10T13:29:43.098Z,24.42
2019-06-10T13:32:13.428Z,24.44
2019-06-10T13:34:43.221Z,24.44
2019-06-10T13:37:16.218Z,24.42
2019-06-10T13:39:45.151Z,24.28
2019-06-10T13:42:14.828Z,24.54
2019-06-10T13:44:44.463Z,24.49
2019-06-10T13:47:14.967Z,24.78
2019-06-10T13:49:44.775Z,25.12
2019-06-10T13:52:16.816Z,25.35
2019-06-10T13:54:46.200Z,25.56
2019-06-10T13:57:16.031Z,25.90
2019-06-10T13:59:46.568Z,25.70
2019-06-10T14:02:16.508Z,25.72
2019-06-10T14:04:46.099Z,25.56
2019-06-10T14:07:17.399Z,25.75
2019-06-10T14:09:47.015Z,25.74
2019-06-10T14:12:17.530Z,25.57
2019-06-10T14:14:47.467Z,25.51
2019-06-10T14:17:19.411Z,25.16
2019-06-10T14:19:48.367Z,25.04
2019-06-10T14:22:17.942Z,24.98
2019-06-10T14:24:47.521Z,24.85
2019-06-10T14:27:21.164Z,24.85
2019-06-10T14:29:48.525Z,24.88
2019-06-10T14:32:18.101Z,24.66
2019-06-10T14:34:47.694Z,24.47
2019-06-10T14:37:32.308Z,24.35
2019-06-10T14:39:48.691Z,24.23
2019-06-10T14:42:18.271Z,24.23
2019-06-10T14:44:47.882Z,24.17
2019-06-10T14:47:17.472Z,24.05
2019-06-10T14:49:47.199Z,23.98
2019-06-10T14:52:17.046Z,23.76
2019-06-10T14:54:46.631Z,23.84
2019-06-10T14:57:16.834Z,23.78
2019-06-10T14:59:46.453Z,23.89
2019-06-10T15:02:17.370Z,23.93
2019-06-10T15:04:47.103Z,24.12
2019-06-10T15:07:16.758Z,24.12
2019-06-10T15:09:46.325Z,24.13
2019-06-10T15:12:17.436Z,24.25
2019-06-10T15:14:47.244Z,24.34
2019-06-10T15:17:16.954Z,24.47
2019-06-10T15:19:46.587Z,24.60
2019-06-10T15:22:17.020Z,24.71
2019-06-10T15:24:46.581Z,24.84
2019-06-10T15:27:24.762Z,24.86
2019-06-10T15:29:47.504Z,24.68
2019-06-10T15:32:28.677Z,24.70
2019-06-10T15:34:48.357Z,24.70
2019-06-10T15:37:19.361Z,24.81
2019-06-10T15:39:49.199Z,24.95
2019-06-10T15:42:19.730Z,25.02
2019-06-10T15:44:55.141Z,25.03
2019-06-10T15:47:26.413Z,25.20
2019-06-10T15:49:52.621Z,25.34
2019-06-10T15:52:24.963Z,25.50
2019-06-10T15:54:53.414Z,25.70
2019-06-10T15:57:38.878Z,25.49
2019-06-10T15:59:54.288Z,25.78
2019-06-10T16:02:25.567Z,25.88
2019-06-10T16:04:55.274Z,25.60
2019-06-10T16:07:25.584Z,25.52
2019-06-10T16:09:55.395Z,25.76
2019-06-10T16:12:26.920Z,26.27
2019-06-10T16:14:56.629Z,26.69
2019-06-10T16:17:26.202Z,26.43
2019-06-10T16:19:55.785Z,26.73
2019-06-10T16:22:26.298Z,26.77
2019-06-10T16:24:56.011Z,26.50
2019-06-10T16:27:43.534Z,26.21
2019-06-10T16:29:56.898Z,26.81
2019-06-10T16:32:26.611Z,27.06
2019-06-10T16:34:56.171Z,27.12
2019-06-10T16:37:27.017Z,27.53
2019-06-10T16:39:56.740Z,27.63
2019-06-10T16:42:27.473Z,28.06
2019-06-10T16:44:57.265Z,28.04
2019-06-10T16:47:27.419Z,27.54
2019-06-10T16:49:57.098Z,27.72
2019-06-10T16:52:27.534Z,27.68
2019-06-10T16:54:57.247Z,27.41
2019-06-10T16:57:27.297Z,26.38
2019-06-10T16:59:56.952Z,26.22
2019-06-10T17:02:26.931Z,25.76
2019-06-10T17:04:58.501Z,25.28
2019-06-10T17:07:29.166Z,24.50
2019-06-10T17:09:58.929Z,24.21
2019-06-10T17:12:28.492Z,24.22
2019-06-10T17:14:58.148Z,23.89
2019-06-10T17:17:28.642Z,23.63
2019-06-10T17:19:59.055Z,23.43
2019-06-10T17:22:30.237Z,23.28
2019-06-10T17:24:59.940Z,22.89
2019-06-10T17:27:29.693Z,22.85
2019-06-10T17:29:59.800Z,22.88
2019-06-10T17:32:30.260Z,22.45
2019-06-10T17:35:02.165Z,22.42
2019-06-10T17:37:33.646Z,22.29
2019-06-10T17:40:02.747Z,22.10
2019-06-10T17:42:38.002Z,22.03
2019-06-10T17:45:04.419Z,21.91
2019-06-10T17:47:34.639Z,21.71
2019-06-10T17:50:07.298Z,21.49
2019-06-10T17:52:38.880Z,21.15
2019-06-10T17:55:09.000Z,21.19
2019-06-10T17:57:38.737Z,21.00
2019-06-10T18:00:12.199Z,20.97
2019-06-10T18:02:42.601Z,21.04
2019-06-10T18:05:13.506Z,20.88
2019-06-10T18:07:43.179Z,20.81
2019-06-10T18:10:14.640Z,20.82
2019-06-10T18:12:44.275Z,20.69
2019-06-10T18:15:15.968Z,20.68
2019-06-10T18:17:45.624Z,20.64
2019-06-10T18:20:15.972Z,20.56
2019-06-10T18:22:45.564Z,20.36
2019-06-10T18:25:15.298Z,20.44
2019-06-10T18:27:45.162Z,20.31
2019-06-10T18:30:15.686Z,20.24
2019-06-10T18:32:45.386Z,20.23
2019-06-10T18:35:15.841Z,20.26
2019-06-10T18:37:45.511Z,20.27
2019-06-10T18:40:15.548Z,20.23
2019-06-10T18:42:45.604Z,20.31
2019-06-10T18:45:15.638Z,20.25
2019-06-10T18:47:45.222Z,20.13
2019-06-10T18:50:16.377Z,19.97
2019-06-10T18:52:46.487Z,20.05
2019-06-10T18:55:17.441Z,19.89
2019-06-10T18:57:47.109Z,19.85
2019-06-10T19:00:18.469Z,19.74
2019-06-10T19:02:48.223Z,19.59
2019-06-10T19:05:18.613Z,19.49
2019-06-10T19:07:48.316Z,19.33
2019-06-10T19:10:19.692Z,19.25
2019-06-10T19:12:49.260Z,19.10
2019-06-10T19:15:19.072Z,19.08
2019-06-10T19:17:48.684Z,19.00
2019-06-10T19:20:18.983Z,18.61
2019-06-10T19:22:48.572Z,18.72
2019-06-10T19:25:18.540Z,18.60
2019-06-10T19:27:48.142Z,18.61
2019-06-10T19:30:18.957Z,18.60
2019-06-10T19:32:48.561Z,18.54
2019-06-10T19:35:18.371Z,18.45
2019-06-10T19:37:48.094Z,18.30
2019-06-10T19:40:18.794Z,18.23
2019-06-10T19:42:48.408Z,18.06
2019-06-10T19:45:18.101Z,17.99
2019-06-10T19:47:47.682Z,17.93
2019-06-10T19:50:17.435Z,17.97
2019-06-10T19:52:46.991Z,17.75
2019-06-10T19:55:16.699Z,17.71
2019-06-10T19:57:46.285Z,17.57
2019-06-10T20:00:17.590Z,17.54
2019-06-10T20:02:47.169Z,17.58
2019-06-10T20:05:20.101Z,17.40
2019-06-10T20:07:52.757Z,17.40
2019-06-10T20:10:23.073Z,17.40
2019-06-10T20:12:53.640Z,17.38
2019-06-10T20:15:26.489Z,17.27
2019-06-10T20:17:56.047Z,17.31
2019-06-10T20:20:25.771Z,17.28
2019-06-10T20:22:57.523Z,17.34
2019-06-10T20:25:26.627Z,17.28
2019-06-10T20:27:56.274Z,17.17
2019-06-10T20:30:29.017Z,16.97
2019-06-10T20:32:57.514Z,16.97
2019-06-10T20:35:27.131Z,17.06
2019-06-10T20:37:56.885Z,17.10
2019-06-10T20:40:26.454Z,17.13
2019-06-10T20:42:56.218Z,16.98
2019-06-10T20:45:25.856Z,16.97
2019-06-10T20:47:55.519Z,17.00
2019-06-10T20:50:25.272Z,16.94
2019-06-10T20:52:55.024Z,16.97
2019-06-10T20:55:37.625Z,16.91
2019-06-10T20:58:03.515Z,16.89
2019-06-10T21:00:36.923Z,16.90
2019-06-10T21:03:07.058Z,17.00
2019-06-10T21:05:36.768Z,16.91
2019-06-10T21:08:07.123Z,16.96
2019-06-10T21:10:37.622Z,16.93
2019-06-10T21:13:07.527Z,16.93
2019-06-10T21:15:37.576Z,16.95
2019-06-10T21:18:07.225Z,16.99
2019-06-10T21:20:36.968Z,16.91
2019-06-10T21:23:06.621Z,16.84
2019-06-10T21:25:36.280Z,16.79
2019-06-10T21:28:05.856Z,16.73
2019-06-10T21:30:41.695Z,16.71
2019-06-10T21:33:06.916Z,16.75
2019-06-10T21:35:36.482Z,16.76
2019-06-10T21:38:06.117Z,16.73
2019-06-10T21:40:35.696Z,16.57
2019-06-10T21:43:05.342Z,16.61
2019-06-10T21:45:34.926Z,16.62
2019-06-10T21:48:04.926Z,16.62
2019-06-10T21:50:34.589Z,16.49
2019-06-10T21:53:04.488Z,16.35
2019-06-10T21:55:34.166Z,16.34
2019-06-10T21:58:04.101Z,16.37
2019-06-10T22:00:52.038Z,16.34
2019-06-10T22:03:07.968Z,16.48
2019-06-10T22:05:37.699Z,16.52
2019-06-10T22:08:07.345Z,16.61
2019-06-10T22:10:37.013Z,16.53
2019-06-10T22:13:06.718Z,16.56
2019-06-10T22:15:36.375Z,16.65
2019-06-10T22:18:05.933Z,16.70
2019-06-10T22:20:35.518Z,16.81
2019-06-10T22:23:05.172Z,16.78
2019-06-10T22:25:34.744Z,16.76
2019-06-10T22:28:04.644Z,16.78
2019-06-10T22:30:34.253Z,16.78
2019-06-10T22:33:03.965Z,16.72
2019-06-10T22:35:33.682Z,16.75
2019-06-10T22:38:03.282Z,16.83
2019-06-10T22:40:32.941Z,16.80
2019-06-10T22:43:03.188Z,16.82
2019-06-10T22:45:33.016Z,16.85
2019-06-10T22:48:03.170Z,16.91
2019-06-10T22:50:32.841Z,16.90
2019-06-10T22:53:03.843Z,16.89
2019-06-10T22:55:33.731Z,16.79
2019-06-10T22:58:06.291Z,16.76
2019-06-10T23:00:34.645Z,16.76
2019-06-10T23:03:04.298Z,16.68
2019-06-10T23:05:33.956Z,16.83
2019-06-10T23:08:03.655Z,16.92
2019-06-10T23:10:33.793Z,16.85
2019-06-10T23:13:03.373Z,16.84
2019-06-10T23:15:33.130Z,16.70
2019-06-10T23:18:03.327Z,16.76
2019-06-10T23:20:33.300Z,16.78
2019-06-10T23:25:42.717Z,16.64
2019-06-10T23:28:13.465Z,16.76
2019-06-10T23:30:43.691Z,16.66
2019-06-10T23:33:13.734Z,16.66
2019-06-10T23:35:43.583Z,16.75
2019-06-10T23:38:13.473Z,16.82
2019-06-10T23:40:43.206Z,16.72
2019-06-10T23:43:13.479Z,16.87
2019-06-10T23:45:43.021Z,16.85
2019-06-10T23:48:13.556Z,16.94
2019-06-10T23:50:43.849Z,16.91
2019-06-10T23:53:13.664Z,16.90
2019-06-10T23:55:43.260Z,16.89
2019-06-10T23:58:13.672Z,16.89
